Time;durP1;ratioP1;P1;durP2;ratioP2;P2;SDS_P1;SDS_P2;PMS_P1;PMS_P2;Temp;Humidity;BMP_temperature;BMP_pressure;BME280_temperature;BME280_humidity;BME280_pressure;Samples;Min_cycle;Max_cycle;Signal;HPM_P1;HPM_P2
2021/09/06 00:00:56;;;;;;;;;;;12.80;99.90;;;;;;5082759;28;20119;-65
2021/09/06 00:03:21;;;;;;;30.90;18.42;;;12.80;99.90;;;;;;5081949;28;19920;-65
2021/09/06 00:05:47;;;;;;;;;;;12.80;99.90;;;;;;5082927;28;20128;-65
2021/09/06 00:08:12;;;;;;;35.58;18.00;;;12.70;99.90;;;;;;5082375;28;19924;-64
2021/09/06 00:10:42;;;;;;;;;;;12.80;99.90;;;;;;5083196;28;20046;-65
2021/09/06 00:13:11;;;;;;;30.15;17.58;;;12.70;99.90;;;;;;5082890;28;19920;-65
2021/09/06 00:15:38;;;;;;;33.38;18.70;;;12.70;99.90;;;;;;5081601;28;20521;-65
2021/09/06 00:18:04;;;;;;;35.58;18.48;;;12.80;99.90;;;;;;5072845;28;20032;-65
2021/09/06 00:20:31;;;;;;;28.20;17.27;;;12.80;99.90;;;;;;5068302;28;20046;-65
2021/09/06 00:22:57;;;;;;;33.97;18.08;;;12.80;99.90;;;;;;5068826;28;20052;-65
2021/09/06 00:25:23;;;;;;;34.38;18.08;;;12.90;99.90;;;;;;5067520;28;20063;-65
2021/09/06 00:27:49;;;;;;;;;;;12.90;99.90;;;;;;5069859;28;20472;-65
2021/09/06 00:30:14;;;;;;;30.95;18.08;;;12.70;99.90;;;;;;5068506;28;19923;-65
2021/09/06 00:32:40;;;;;;;;;;;12.70;99.90;;;;;;5068493;28;20064;-65
2021/09/06 00:35:06;;;;;;;28.92;17.35;;;12.70;99.90;;;;;;5069452;28;19923;-66
2021/09/06 00:37:31;;;;;;;;;;;12.70;99.90;;;;;;5069134;28;20062;-66
2021/09/06 00:39:57;;;;;;;27.65;17.02;;;12.80;99.90;;;;;;5067465;28;20418;-65
2021/09/06 00:42:22;;;;;;;;;;;12.70;99.90;;;;;;5068516;28;20040;-64
2021/09/06 00:44:48;;;;;;;28.08;16.25;;;12.80;99.90;;;;;;5068447;28;19923;-65
2021/09/06 00:47:13;;;;;;;;;;;12.80;99.90;;;;;;5067673;28;20513;-65
2021/09/06 00:49:39;;;;;;;29.77;15.88;;;12.80;99.90;;;;;;5068587;28;19989;-64
2021/09/06 00:52:05;;;;;;;;;;;12.80;99.90;;;;;;5068949;28;20078;-64
2021/09/06 00:54:30;;;;;;;31.10;17.15;;;12.70;99.90;;;;;;5068231;28;19920;-64
2021/09/06 00:56:56;;;;;;;;;;;12.60;99.90;;;;;;5068168;28;20043;-65
2021/09/06 00:59:22;;;;;;;26.63;15.93;;;12.60;99.90;;;;;;5068388;28;19920;-65
2021/09/06 01:01:47;;;;;;;;;;;12.60;99.90;;;;;;5065894;28;20037;-65
2021/09/06 01:04:13;;;;;;;30.23;17.05;;;12.60;99.90;;;;;;5067772;28;19927;-66
2021/09/06 01:06:38;;;;;;;;;;;12.70;99.90;;;;;;5067456;28;20049;-64
2021/09/06 01:09:04;;;;;;;29.48;16.08;;;12.60;99.90;;;;;;5067361;28;19947;-66
2021/09/06 01:11:30;;;;;;;;;;;12.70;99.90;;;;;;5068073;28;20515;-65
2021/09/06 01:13:56;;;;;;;30.65;15.93;;;12.50;99.90;;;;;;5066299;28;20003;-65
2021/09/06 01:16:22;;;;;;;;;;;12.50;99.90;;;;;;5066583;28;20132;-65
2021/09/06 01:18:48;;;;;;;28.65;16.33;;;12.50;99.90;;;;;;5066854;28;19962;-65
2021/09/06 01:21:14;;;;;;;;;;;12.50;99.90;;;;;;5067758;28;20143;-65
2021/09/06 01:23:40;;;;;;;26.50;14.50;;;12.50;99.90;;;;;;5066019;28;20321;-64
2021/09/06 01:26:05;;;;;;;;;;;12.60;99.90;;;;;;5064536;28;20127;-64
2021/09/06 01:28:31;;;;;;;27.90;14.82;;;12.60;99.90;;;;;;5061419;28;20347;-64
2021/09/06 01:30:56;;;;;;;;;;;12.60;99.90;;;;;;5065364;28;20032;-65
2021/09/06 01:33:22;;;;;;;25.80;15.30;;;12.60;99.90;;;;;;5067397;28;19977;-64
2021/09/06 01:35:47;;;;;;;;;;;12.50;99.90;;;;;;5068547;28;20130;-65
2021/09/06 01:38:13;;;;;;;26.25;14.60;;;12.50;99.90;;;;;;5063658;28;19954;-65
2021/09/06 01:40:38;;;;;;;;;;;12.50;99.90;;;;;;5068090;28;20072;-65
2021/09/06 01:43:04;;;;;;;35.00;20.00;;;12.60;99.90;;;;;;5066838;28;19923;-65
2021/09/06 01:45:29;;;;;;;;;;;12.50;99.90;;;;;;5066432;28;20048;-65
2021/09/06 01:47:55;;;;;;;29.75;17.60;;;12.30;99.90;;;;;;5066902;28;20333;-66
2021/09/06 01:50:20;;;;;;;;;;;12.30;99.90;;;;;;5067347;28;20043;-64
2021/09/06 01:52:46;;;;;;;26.25;15.98;;;12.20;99.90;;;;;;5067391;28;20379;-65
2021/09/06 01:55:11;;;;;;;;;;;12.20;99.90;;;;;;5066586;28;20040;-65
2021/09/06 01:57:37;;;;;;;30.13;15.90;;;12.20;99.90;;;;;;5067194;28;19920;-65
2021/09/06 02:00:03;;;;;;;;;;;12.20;99.90;;;;;;5065903;28;20040;-65
2021/09/06 02:02:29;;;;;;;27.52;15.27;;;12.20;99.90;;;;;;5066571;28;19916;-65
2021/09/06 02:04:54;;;;;;;;;;;12.20;99.90;;;;;;5067839;28;20037;-65
2021/09/06 02:07:20;;;;;;;24.85;13.45;;;12.20;99.90;;;;;;5066741;28;19924;-65
2021/09/06 02:09:45;;;;;;;;;;;12.20;99.90;;;;;;5067524;28;20047;-65
2021/09/06 02:12:11;;;;;;;24.75;14.48;;;12.10;99.90;;;;;;5066780;28;19920;-65
2021/09/06 02:14:36;;;;;;;;;;;12.10;99.90;;;;;;5067369;28;20040;-65
2021/09/06 02:17:02;;;;;;;25.92;15.15;;;12.20;99.90;;;;;;5066055;28;19952;-65
2021/09/06 02:19:28;;;;;;;;;;;12.10;99.90;;;;;;5047484;28;20033;-64
2021/09/06 02:21:53;;;;;;;21.77;12.65;;;12.10;99.90;;;;;;5046884;28;19917;-65
2021/09/06 02:24:19;;;;;;;;;;;12.00;99.90;;;;;;5046922;28;20041;-65
2021/09/06 02:26:45;;;;;;;25.55;14.38;;;12.00;99.90;;;;;;5046705;28;20007;-65
2021/09/06 02:29:11;;;;;;;;;;;12.00;99.90;;;;;;5055150;28;20396;-64
2021/09/06 02:31:37;;;;;;;28.63;15.35;;;12.00;99.90;;;;;;5064540;28;19920;-64
2021/09/06 02:34:04;;;;;;;32.90;14.35;;;12.00;99.90;;;;;;5066172;28;20426;-65
2021/09/06 02:36:29;;;;;;;25.25;14.98;;;12.00;99.90;;;;;;5065847;28;20040;-65
2021/09/06 02:38:55;;;;;;;;;;;11.80;99.90;;;;;;5066490;28;20131;-64
2021/09/06 02:41:20;;;;;;;28.48;13.45;;;11.90;99.90;;;;;;5065355;28;19921;-64
2021/09/06 02:43:46;;;;;;;;;;;11.90;99.90;;;;;;5065309;28;20106;-64
2021/09/06 02:46:12;;;;;;;19.42;11.82;;;11.90;99.90;;;;;;5065323;28;19928;-65
2021/09/06 02:48:37;;;;;;;;;;;11.90;99.90;;;;;;5066026;28;20124;-65
2021/09/06 02:51:03;;;;;;;23.30;13.00;;;11.90;99.90;;;;;;5066433;28;19928;-65
2021/09/06 02:53:28;;;;;;;;;;;11.90;99.90;;;;;;5065305;28;20087;-65
2021/09/06 02:55:54;;;;;;;20.77;12.23;;;11.90;99.90;;;;;;5066285;28;19991;-65
2021/09/06 02:58:19;;;;;;;;;;;11.90;99.90;;;;;;5064810;28;20097;-65
2021/09/06 03:00:45;;;;;;;21.20;12.20;;;11.90;99.90;;;;;;5065014;28;19973;-64
2021/09/06 03:03:10;;;;;;;;;;;11.90;99.90;;;;;;5066615;28;20117;-65
2021/09/06 03:05:36;;;;;;;21.23;12.05;;;11.90;99.90;;;;;;5065375;28;20506;-65
2021/09/06 03:08:01;;;;;;;;;;;11.80;99.90;;;;;;5065308;28;20529;-64
2021/09/06 03:10:27;;;;;;;22.75;13.35;;;11.80;99.90;;;;;;5065594;28;19916;-65
2021/09/06 03:12:54;;;;;;;;;;;11.80;99.90;;;;;;5045762;28;20041;-66
2021/09/06 03:15:19;;;;;;;22.35;11.98;;;11.70;99.90;;;;;;5045215;28;19921;-65
2021/09/06 03:17:45;;;;;;;;;;;11.70;99.90;;;;;;5050309;28;20044;-60
2021/09/06 03:20:11;;;;;;;20.50;12.02;;;11.70;99.90;;;;;;5065203;28;20303;-64
2021/09/06 03:22:36;;;;;;;;;;;11.70;99.90;;;;;;5066103;28;20106;-63
2021/09/06 03:25:02;;;;;;;19.55;11.68;;;11.70;99.90;;;;;;5065705;28;19920;-63
2021/09/06 03:27:27;;;;;;;;;;;11.70;99.90;;;;;;5063347;28;20058;-63
2021/09/06 03:29:53;;;;;;;20.52;11.07;;;11.60;99.90;;;;;;5063244;28;20102;-63
2021/09/06 03:32:18;;;;;;;;;;;11.60;99.90;;;;;;5065100;28;20036;-64
2021/09/06 03:34:44;;;;;;;18.52;11.02;;;11.70;99.90;;;;;;5064767;28;19922;-64
2021/09/06 03:37:09;;;;;;;;;;;11.70;99.90;;;;;;5066005;28;20044;-64
2021/09/06 03:39:35;;;;;;;23.92;12.63;;;11.60;99.90;;;;;;5065003;28;19927;-64
2021/09/06 03:42:00;;;;;;;;;;;11.70;99.90;;;;;;5063899;28;20060;-64
2021/09/06 03:44:26;;;;;;;20.45;11.85;;;11.70;99.90;;;;;;5065038;28;20132;-64
2021/09/06 03:46:52;;;;;;;;;;;11.70;99.90;;;;;;5056423;28;20033;-63
2021/09/06 03:49:17;;;;;;;19.50;10.57;;;11.70;99.90;;;;;;5045467;28;20376;-63
2021/09/06 03:51:43;;;;;;;;;;;11.60;99.90;;;;;;5045056;28;20029;-64
2021/09/06 03:54:08;;;;;;;21.98;11.82;;;11.60;99.90;;;;;;5048574;28;19966;-65
2021/09/06 03:56:34;;;;;;;;;;;11.60;99.90;;;;;;5049242;28;20586;-64
2021/09/06 03:58:59;;;;;;;16.92;9.45;;;11.50;99.90;;;;;;5058244;28;20633;-66
2021/09/06 04:01:25;;;;;;;;;;;11.50;99.90;;;;;;5061141;28;20052;-62
2021/09/06 04:03:50;;;;;;;39.85;21.13;;;11.50;99.90;;;;;;5066367;28;20015;-63
2021/09/06 04:06:16;;;;;;;;;;;11.60;99.90;;;;;;5069689;28;20102;-62
2021/09/06 04:08:42;;;;;;;34.72;17.20;;;11.50;99.90;;;;;;5068752;28;19974;-64
2021/09/06 04:11:08;;;;;;;;;;;11.60;99.90;;;;;;5069169;28;20450;-64
2021/09/06 04:13:33;;;;;;;20.52;12.27;;;11.60;99.90;;;;;;5068959;28;19916;-65
2021/09/06 04:15:59;;;;;;;;;;;11.60;99.90;;;;;;5067200;28;20985;-64
2021/09/06 04:18:26;;;;;;;21.38;12.05;;;11.50;99.90;;;;;;5067530;28;20469;-65
2021/09/06 04:20:52;;;;;;;18.33;11.52;;;11.50;99.90;;;;;;5068386;28;20117;-63
2021/09/06 04:23:18;;;;;;;;;;;11.40;99.90;;;;;;5068534;28;20047;-63
2021/09/06 04:25:44;;;;;;;20.27;10.90;;;11.30;99.90;;;;;;5068416;28;19920;-63
2021/09/06 04:28:09;;;;;;;;;;;11.30;99.90;;;;;;5062212;28;20037;-64
2021/09/06 04:30:35;;;;;;;35.47;21.10;;;11.30;99.90;;;;;;5067936;28;19962;-63
2021/09/06 04:33:00;;;;;;;;;;;11.40;99.90;;;;;;5068065;28;20068;-63
2021/09/06 04:35:26;;;;;;;31.73;14.35;;;11.40;99.90;;;;;;5067889;28;19971;-64
2021/09/06 04:37:51;;;;;;;;;;;11.40;99.90;;;;;;5067743;28;20036;-67
2021/09/06 04:40:17;;;;;;;51.72;28.30;;;11.40;99.90;;;;;;5067620;28;19916;-64
2021/09/06 04:42:42;;;;;;;;;;;11.40;99.90;;;;;;5068324;28;20052;-64
2021/09/06 04:45:09;;;;;;;31.73;16.40;;;11.40;99.90;;;;;;5068043;28;19927;-66
2021/09/06 04:47:34;;;;;;;19.48;11.85;;;11.40;99.90;;;;;;5066607;28;20060;-63
2021/09/06 04:50:00;;;;;;;;;;;11.40;99.90;;;;;;5068544;28;20040;-64
2021/09/06 04:52:26;;;;;;;21.42;11.15;;;11.40;99.90;;;;;;5068864;28;20010;-63
2021/09/06 04:54:51;;;;;;;;;;;11.40;99.90;;;;;;5069761;28;20485;-63
2021/09/06 04:57:16;;;;;;;16.85;10.13;;;11.40;99.90;;;;;;5067606;28;19920;-64
2021/09/06 04:59:42;;;;;;;;;;;11.40;99.90;;;;;;5063059;28;20037;-64
2021/09/06 05:02:07;;;;;;;20.23;10.63;;;11.50;99.90;;;;;;5067546;28;19912;-64
2021/09/06 05:04:33;;;;;;;;;;;11.50;99.90;;;;;;5069298;28;20098;-63
2021/09/06 05:06:58;;;;;;;17.27;9.90;;;11.50;99.90;;;;;;5067818;28;20508;-64
2021/09/06 05:09:24;;;;;;;;;;;11.50;99.90;;;;;;5068854;28;20089;-64
2021/09/06 05:11:51;;;;;;;21.80;10.05;;;11.50;99.90;;;;;;5067759;28;20384;-64
2021/09/06 05:14:16;;;;;;;19.30;10.60;;;11.50;99.90;;;;;;5068166;28;20744;-63
2021/09/06 05:16:42;;;;;;;;;;;11.80;99.90;;;;;;5050670;28;20795;-65
2021/09/06 05:19:07;;;;;;;15.32;9.00;;;12.30;99.90;;;;;;5067675;28;19916;-64
2021/09/06 05:21:33;;;;;;;;;;;13.00;99.90;;;;;;5068380;28;20716;-64
2021/09/06 05:23:59;;;;;;;16.55;8.90;;;13.50;99.90;;;;;;5068561;28;19916;-65
2021/09/06 05:26:25;;;;;;;;;;;13.50;99.90;;;;;;5067827;28;20505;-65
2021/09/06 05:28:50;;;;;;;17.70;8.20;;;13.40;99.90;;;;;;5062014;28;19993;-64
2021/09/06 05:31:16;;;;;;;;;;;12.90;99.90;;;;;;5067727;28;20500;-64
2021/09/06 05:33:41;;;;;;;17.88;9.00;;;12.90;99.90;;;;;;5065990;28;19927;-63
2021/09/06 05:36:07;;;;;;;;;;;13.00;99.90;;;;;;5067239;28;20062;-62
2021/09/06 05:38:33;;;;;;;17.30;8.23;;;13.50;99.90;;;;;;5066206;28;19952;-64
2021/09/06 05:40:58;;;;;;;;;;;13.60;99.90;;;;;;5068204;28;20123;-64
2021/09/06 05:43:24;;;;;;;19.52;8.70;;;13.60;99.90;;;;;;5068294;28;19912;-64
2021/09/06 05:45:49;;;;;;;;;;;13.40;99.90;;;;;;5065867;28;20161;-63
2021/09/06 05:48:15;;;;;;;12.63;8.02;;;13.30;99.90;;;;;;5066293;28;20601;-64
2021/09/06 05:50:40;;;;;;;;;;;13.30;99.90;;;;;;5068906;28;20040;-64
2021/09/06 05:53:06;;;;;;;16.98;9.05;;;13.20;99.90;;;;;;5070387;28;19916;-64
2021/09/06 05:55:32;;;;;;;;;;;13.10;99.90;;;;;;5070230;28;20491;-65
2021/09/06 05:57:58;;;;;;;17.30;9.98;;;13.10;99.90;;;;;;5067981;28;19928;-65
2021/09/06 06:00:24;;;;;;;;;;;13.00;99.90;;;;;;5048174;28;20063;-65
2021/09/06 06:02:50;;;;;;;18.73;8.90;;;13.10;99.90;;;;;;5065151;28;19954;-65
2021/09/06 06:05:15;;;;;;;;;;;13.10;99.90;;;;;;5067584;28;20412;-64
2021/09/06 06:07:41;;;;;;;40.75;25.27;;;13.40;99.90;;;;;;5067576;28;19920;-65
2021/09/06 06:10:06;;;;;;;;;;;14.00;99.90;;;;;;5067783;28;20377;-66
2021/09/06 06:12:32;;;;;;;17.77;10.45;;;14.50;99.90;;;;;;5067286;28;19970;-65
2021/09/06 06:14:59;;;;;;;;;;;14.60;99.90;;;;;;5067540;28;20050;-66
2021/09/06 06:17:25;;;;;;;16.48;8.50;;;14.60;99.90;;;;;;5065298;28;19920;-66
2021/09/06 06:19:52;;;;;;;17.33;8.30;;;14.90;99.90;;;;;;5067084;28;20048;-65
2021/09/06 06:22:18;;;;;;;13.98;8.23;;;15.50;99.90;;;;;;5067509;28;20098;-65
2021/09/06 06:24:44;;;;;;;16.27;8.52;;;15.30;99.90;;;;;;5067096;28;20618;-64
2021/09/06 06:27:09;;;;;;;;;;;15.10;99.90;;;;;;5066959;28;20044;-65
2021/09/06 06:29:35;;;;;;;12.38;8.27;;;14.80;99.90;;;;;;5061465;28;19920;-65
2021/09/06 06:32:01;;;;;;;;;;;14.50;99.90;;;;;;5066387;28;20041;-65
2021/09/06 06:34:26;;;;;;;17.42;9.73;;;14.40;99.90;;;;;;5067118;28;19920;-66
2021/09/06 06:36:52;;;;;;;;;;;14.30;99.90;;;;;;5066484;28;20063;-65
2021/09/06 06:39:18;;;;;;;17.60;9.27;;;14.30;99.90;;;;;;5066266;28;19922;-66
2021/09/06 06:41:45;;;;;;;;;;;14.40;99.90;;;;;;5067040;28;20048;-65
2021/09/06 06:44:10;;;;;;;14.48;8.90;;;14.50;99.90;;;;;;5046893;28;19977;-64
2021/09/06 06:46:36;;;;;;;;;;;14.50;99.90;;;;;;5046513;28;20049;-65
2021/09/06 06:49:01;;;;;;;14.27;8.27;;;14.50;99.90;;;;;;5046195;28;19923;-66
2021/09/06 06:51:27;;;;;;;;;;;14.70;99.90;;;;;;5047024;28;20118;-65
2021/09/06 06:53:52;;;;;;;16.75;8.10;;;14.90;99.90;;;;;;5045887;28;19986;-65
2021/09/06 06:56:18;;;;;;;;;;;15.10;99.90;;;;;;5050996;28;20036;-66
2021/09/06 06:58:44;;;;;;;16.27;8.05;;;15.10;99.90;;;;;;5065451;28;19916;-65
2021/09/06 07:01:09;;;;;;;;;;;15.10;99.90;;;;;;5065508;28;20040;-65
2021/09/06 07:03:35;;;;;;;13.43;8.73;;;15.10;99.90;;;;;;5066339;28;20327;-66
2021/09/06 07:06:00;;;;;;;;;;;15.10;99.90;;;;;;5066419;28;20067;-64
2021/09/06 07:08:26;;;;;;;16.33;9.00;;;15.20;99.90;;;;;;5066196;28;20035;-65
2021/09/06 07:10:51;;;;;;;;;;;15.20;99.90;;;;;;5067171;28;20040;-65
2021/09/06 07:13:17;;;;;;;14.45;7.93;;;15.20;99.90;;;;;;5066050;28;19924;-66
2021/09/06 07:15:42;;;;;;;;;;;15.30;99.90;;;;;;5066650;28;20041;-65
2021/09/06 07:18:08;;;;;;;17.08;8.95;;;15.40;99.90;;;;;;5065758;28;19970;-65
2021/09/06 07:20:34;;;;;;;;;;;15.40;99.90;;;;;;5066402;28;20036;-65
2021/09/06 07:23:00;;;;;;;18.55;8.80;;;15.50;99.90;;;;;;5066619;28;20449;-65
2021/09/06 07:25:26;;;;;;;;;;;15.60;99.90;;;;;;5064997;28;20036;-65
2021/09/06 07:27:51;;;;;;;18.90;9.90;;;15.60;99.90;;;;;;5068238;28;20314;-65
2021/09/06 07:30:17;;;;;;;;;;;15.70;99.90;;;;;;5070536;28;20041;-65
2021/09/06 07:32:44;;;;;;;14.40;9.75;;;15.80;99.90;;;;;;5071138;28;19916;-65
2021/09/06 07:35:10;;;;;;;19.30;9.35;;;15.90;99.90;;;;;;5070625;28;20044;-65
2021/09/06 07:37:36;;;;;;;14.85;9.50;;;15.90;99.90;;;;;;5070387;28;20637;-65
2021/09/06 07:40:02;;;;;;;;;;;16.10;99.90;;;;;;5071040;28;20044;-66
2021/09/06 07:42:27;;;;;;;20.55;10.80;;;16.10;99.90;;;;;;5070344;28;19920;-64
2021/09/06 07:44:53;;;;;;;;;;;16.20;99.90;;;;;;5071167;28;20044;-64
2021/09/06 07:47:18;;;;;;;16.23;10.10;;;16.30;99.90;;;;;;5069228;28;20007;-65
2021/09/06 07:49:45;;;;;;;;;;;16.40;99.90;;;;;;5068452;28;20040;-65
2021/09/06 07:52:11;;;;;;;15.27;9.80;;;16.50;99.90;;;;;;5069431;28;19917;-64
2021/09/06 07:54:37;;;;;;;16.98;10.73;;;16.60;99.90;;;;;;5069782;28;20040;-65
2021/09/06 07:57:02;;;;;;;;;;;16.70;99.90;;;;;;5069815;28;20669;-65
2021/09/06 07:59:28;;;;;;;15.32;9.15;;;16.90;99.90;;;;;;5069002;28;20386;-65
2021/09/06 08:01:53;;;;;;;;;;;17.00;99.90;;;;;;5069652;28;20044;-65
2021/09/06 08:04:19;;;;;;;16.77;9.68;;;17.10;99.90;;;;;;5069195;28;19921;-65
2021/09/06 08:06:45;;;;;;;16.17;9.23;;;17.30;99.90;;;;;;5068648;28;20504;-66
2021/09/06 08:09:12;;;;;;;14.48;9.10;;;17.90;99.90;;;;;;5069618;28;20074;-65
2021/09/06 08:11:38;;;;;;;14.15;9.57;;;19.00;99.90;;;;;;5069430;28;20040;-65
2021/09/06 08:14:05;;;;;;;;;;;20.50;99.90;;;;;;5069549;28;20043;-65
2021/09/06 08:16:30;;;;;;;12.95;8.05;;;22.10;99.40;;;;;;5068127;28;19923;-66
2021/09/06 08:18:56;;;;;;;13.85;8.70;;;23.60;97.20;;;;;;5068263;28;20044;-66
2021/09/06 08:21:21;;;;;;;11.80;8.27;;;24.40;93.00;;;;;;5069053;28;20153;-63
2021/09/06 08:23:47;;;;;;;12.80;8.70;;;25.20;92.50;;;;;;5068565;28;20093;-63
2021/09/06 08:26:12;;;;;;;12.05;8.27;;;25.60;90.90;;;;;;5068965;28;20044;-63
2021/09/06 08:28:38;;;;;;;18.58;10.73;;;26.00;89.00;;;;;;5062137;28;20518;-62
2021/09/06 08:31:04;;;;;;;31.35;8.68;;;25.80;87.10;;;;;;5068473;28;20033;-63
2021/09/06 08:33:30;;;;;;;15.48;9.63;;;26.00;88.20;;;;;;5068694;28;20044;-62
2021/09/06 08:35:55;;;;;;;16.25;10.60;;;25.30;84.80;;;;;;5068822;28;20508;-62
2021/09/06 08:38:21;;;;;;;16.73;10.05;;;23.80;88.70;;;;;;5068156;28;20389;-62
2021/09/06 08:40:47;;;;;;;14.77;9.27;;;22.70;91.90;;;;;;5068205;28;20068;-63
2021/09/06 08:43:13;;;;;;;13.18;9.80;;;22.30;94.90;;;;;;5068517;28;20090;-62
2021/09/06 08:45:39;;;;;;;17.15;8.90;;;21.80;94.00;;;;;;5067297;28;20040;-63
2021/09/06 08:48:06;;;;;;;18.75;10.88;;;21.60;96.30;;;;;;5068739;28;20044;-62
2021/09/06 08:50:33;;;;;;;15.43;9.68;;;21.20;94.60;;;;;;5050462;28;20471;-63
2021/09/06 08:53:00;;;;;;;24.88;9.60;;;21.00;96.20;;;;;;5068350;28;20725;-63
2021/09/06 08:55:26;;;;;;;18.55;9.27;;;20.90;96.40;;;;;;5068781;28;20048;-63
2021/09/06 08:57:51;;;;;;;24.65;10.90;;;20.80;97.00;;;;;;5068040;28;20060;-64
2021/09/06 09:00:27;;;;;;;;;;;20.60;96.90;;;;;;5068310;28;20651;-63
2021/09/06 09:02:53;;;;;;;18.98;10.65;;;20.70;96.00;;;;;;5069520;28;19923;-64
2021/09/06 09:05:18;;;;;;;;;;;20.70;96.80;;;;;;5070588;28;20476;-62
2021/09/06 09:07:44;;;;;;;23.85;11.57;;;20.70;96.10;;;;;;5063722;28;19928;-70
2021/09/06 09:10:12;;;;;;;22.08;12.30;;;20.70;97.00;;;;;;5063479;28;20055;-64
2021/09/06 09:12:39;;;;;;;21.02;9.85;;;20.70;95.90;;;;;;5067358;28;20032;-63
2021/09/06 09:15:06;;;;;;;15.10;10.23;;;20.70;96.50;;;;;;5068156;28;20060;-63
2021/09/06 09:17:34;;;;;;;14.80;8.95;;;20.60;95.70;;;;;;5065791;28;20565;-64
2021/09/06 09:20:03;;;;;;;18.17;10.40;;;20.60;96.40;;;;;;5063614;28;20037;-63
2021/09/06 09:22:34;;;;;;;15.98;8.27;;;20.70;96.20;;;;;;5058741;28;20105;-63
2021/09/06 09:25:03;;;;;;;22.05;9.73;;;20.70;97.10;;;;;;5066313;28;20543;-64
2021/09/06 09:27:35;;;;;;;13.57;8.38;;;20.80;96.30;;;;;;5064978;28;20188;-64
2021/09/06 09:30:02;;;;;;;19.08;9.82;;;20.90;96.80;;;;;;5063703;28;20044;-64
2021/09/06 09:32:31;;;;;;;14.85;9.80;;;21.00;94.50;;;;;;5065796;28;20056;-65
2021/09/06 09:34:57;;;;;;;13.75;8.95;;;21.00;95.20;;;;;;5066146;28;20119;-65
2021/09/06 09:37:25;;;;;;;13.68;8.95;;;21.00;94.80;;;;;;5067429;28;20060;-64
2021/09/06 09:39:55;;;;;;;12.25;8.10;;;21.00;94.80;;;;;;5065163;28;20048;-65
2021/09/06 09:42:21;;;;;;;19.52;8.63;;;21.10;94.70;;;;;;5063347;28;20044;-65
2021/09/06 09:44:56;;;;;;;16.65;8.93;;;21.10;93.80;;;;;;5065398;28;20041;-64
2021/09/06 09:47:23;;;;;;;13.48;8.25;;;21.10;94.50;;;;;;5066385;28;20045;-65
2021/09/06 09:49:50;;;;;;;14.40;8.10;;;21.20;93.50;;;;;;5066474;28;20524;-66
2021/09/06 09:52:18;;;;;;;12.65;7.88;;;21.40;93.10;;;;;;5065985;28;20464;-65
2021/09/06 09:54:47;;;;;;;13.75;8.90;;;21.50;93.20;;;;;;5065727;28;20040;-65
2021/09/06 09:57:12;;;;;;;15.15;8.68;;;21.60;93.40;;;;;;5066185;28;20076;-66
2021/09/06 09:59:40;;;;;;;11.50;7.70;;;21.70;93.10;;;;;;5066115;28;20083;-63
2021/09/06 10:02:13;;;;;;;11.10;7.30;;;21.70;92.80;;;;;;5066762;28;20155;-64
2021/09/06 10:04:50;;;;;;;17.70;7.72;;;21.80;93.80;;;;;;5065357;28;20048;-66
2021/09/06 10:07:17;;;;;;;;;;;21.90;93.30;;;;;;5066544;28;20044;-64
2021/09/06 10:09:45;;;;;;;10.90;7.47;;;21.80;94.00;;;;;;5065754;28;19920;-62
2021/09/06 10:12:17;;;;;;;13.32;8.23;;;21.90;93.70;;;;;;5065943;28;20070;-65
2021/09/06 10:15:09;;;;;;;13.05;8.18;;;22.10;94.50;;;;;;5067065;28;20079;-64
2021/09/06 10:17:51;;;;;;;14.35;9.27;;;22.00;93.40;;;;;;5062845;28;20058;-63
2021/09/06 10:20:22;;;;;;;15.07;8.60;;;21.80;93.70;;;;;;5066946;28;20544;-63
2021/09/06 10:23:07;;;;;;;16.20;9.43;;;21.90;93.90;;;;;;5067991;28;20086;-64
2021/09/06 10:25:35;;;;;;;16.25;8.40;;;21.90;93.90;;;;;;5067352;28;20047;-64
2021/09/06 10:28:03;;;;;;;17.60;8.60;;;22.20;93.00;;;;;;5068347;28;20703;-64
2021/09/06 10:30:41;;;;;;;13.05;8.65;;;22.30;93.40;;;;;;5069608;28;20044;-64
2021/09/06 10:33:22;;;;;;;14.73;7.78;;;22.30;91.90;;;;;;5067690;28;20105;-63
2021/09/06 10:35:48;;;;;;;14.55;7.43;;;22.30;91.50;;;;;;5070855;28;20052;-65
2021/09/06 10:38:15;;;;;;;10.48;7.05;;;22.50;92.80;;;;;;5071710;28;20041;-66
2021/09/06 10:40:44;;;;;;;12.85;7.40;;;22.50;92.90;;;;;;5075822;28;20072;-65
2021/09/06 10:43:21;;;;;;;10.27;6.43;;;22.40;91.00;;;;;;5073404;28;20045;-64
2021/09/06 10:45:49;;;;;;;9.73;6.15;;;22.40;83.60;;;;;;5072541;28;20046;-66
2021/09/06 10:48:17;;;;;;;9.32;6.32;;;22.50;90.80;;;;;;5068277;28;20739;-64
2021/09/06 10:50:45;;;;;;;7.65;5.60;;;22.40;90.20;;;;;;5068555;28;20044;-64
2021/09/06 10:53:15;;;;;;;9.27;6.35;;;22.30;90.10;;;;;;5068681;28;20393;-65
2021/09/06 10:55:45;;;;;;;17.17;7.95;;;22.30;90.10;;;;;;5072882;28;20052;-64
2021/09/06 10:58:11;;;;;;;9.70;6.38;;;22.40;90.00;;;;;;5071188;28;20175;-64
2021/09/06 11:00:37;;;;;;;8.93;6.38;;;22.30;87.80;;;;;;5070657;28;20766;-64
2021/09/06 11:03:06;;;;;;;10.48;6.20;;;22.40;82.90;;;;;;5070866;28;20043;-64
2021/09/06 11:05:32;;;;;;;10.00;6.57;;;22.30;87.40;;;;;;5069200;28;20045;-63
2021/09/06 11:08:06;;;;;;;8.90;5.90;;;22.60;85.70;;;;;;5068322;28;20051;-64
2021/09/06 11:10:32;;;;;;;13.70;6.15;;;22.50;85.20;;;;;;5067914;28;20411;-64
2021/09/06 11:13:00;;;;;;;8.52;5.40;;;22.40;86.40;;;;;;5068097;28;20045;-64
2021/09/06 11:15:28;;;;;;;7.57;5.22;;;22.20;80.70;;;;;;5068186;28;20524;-64
2021/09/06 11:18:00;;;;;;;9.43;6.10;;;22.30;85.60;;;;;;5064487;28;20427;-63
2021/09/06 11:20:27;;;;;;;9.23;5.32;;;22.40;84.90;;;;;;5059628;28;20098;-64
2021/09/06 11:22:57;;;;;;;8.52;5.82;;;22.60;85.90;;;;;;5067719;28;20040;-64
2021/09/06 11:25:28;;;;;;;11.77;6.03;;;22.80;84.70;;;;;;5067605;28;20083;-64
2021/09/06 11:28:12;;;;;;;7.85;5.57;;;22.80;84.00;;;;;;5061448;28;20044;-64
2021/09/06 11:30:41;;;;;;;8.48;4.75;;;22.50;81.00;;;;;;5060070;28;20033;-64
2021/09/06 11:33:09;;;;;;;7.55;5.03;;;22.60;80.90;;;;;;5066514;28;20044;-64
2021/09/06 11:35:36;;;;;;;8.85;4.95;;;22.60;77.20;;;;;;5066403;28;20041;-64
2021/09/06 11:38:03;;;;;;;7.60;5.20;;;22.90;72.20;;;;;;5066274;28;20067;-67
2021/09/06 11:40:29;;;;;;;8.50;5.72;;;22.80;78.40;;;;;;5067029;28;20039;-64
2021/09/06 11:42:56;;;;;;;14.00;9.65;;;22.90;72.10;;;;;;5066207;28;20067;-64
2021/09/06 11:45:22;;;;;;;10.70;6.70;;;23.00;78.10;;;;;;5066259;28;20102;-62
2021/09/06 11:47:48;;;;;;;9.75;5.80;;;23.00;78.50;;;;;;5066260;28;20516;-61
2021/09/06 11:50:15;;;;;;;10.60;5.65;;;23.00;72.40;;;;;;5065035;28;20045;-64
2021/09/06 11:52:43;;;;;;;10.25;5.07;;;23.00;72.00;;;;;;5064720;28;20063;-64
2021/09/06 11:55:20;;;;;;;8.95;4.97;;;23.00;59.40;;;;;;5066595;28;20124;-63
2021/09/06 11:57:46;;;;;;;7.30;4.53;;;23.00;62.90;;;;;;5066460;28;20048;-63
2021/09/06 12:00:15;;;;;;;10.02;5.45;;;22.90;55.50;;;;;;5065627;28;20094;-64
2021/09/06 12:02:55;;;;;;;7.25;4.95;;;22.90;58.60;;;;;;5066237;28;20106;-63
2021/09/06 12:05:21;;;;;;;10.77;4.93;;;22.70;64.90;;;;;;5066804;28;20554;-63
2021/09/06 12:07:51;;;;;;;7.22;5.38;;;22.60;63.30;;;;;;5065966;28;20049;-62
2021/09/06 12:10:32;;;;;;;17.00;5.25;;;22.60;67.30;;;;;;5066205;28;20519;-64
2021/09/06 12:12:58;;;;;;;6.88;4.72;;;22.70;66.10;;;;;;5064452;28;20032;-64
2021/09/06 12:15:23;;;;;;;11.15;5.65;;;22.70;64.10;;;;;;5068952;28;20046;-63
2021/09/06 12:17:49;;;;;;;7.80;5.18;;;22.50;66.10;;;;;;5069884;28;20049;-63
2021/09/06 12:20:15;;;;;;;7.47;5.45;;;22.40;65.40;;;;;;5068416;28;20056;-63
2021/09/06 12:22:40;;;;;;;9.23;5.85;;;22.50;65.30;;;;;;5070540;28;20498;-62
2021/09/06 12:25:07;;;;;;;8.55;5.13;;;22.50;65.00;;;;;;5069895;28;20041;-62
2021/09/06 12:27:35;;;;;;;9.10;5.32;;;22.60;64.60;;;;;;5067281;28;20049;-62
2021/09/06 12:30:00;;;;;;;7.28;5.03;;;22.60;65.90;;;;;;5066657;28;20056;-62
2021/09/06 12:32:27;;;;;;;9.55;6.00;;;22.70;67.30;;;;;;5068714;28;20458;-62
2021/09/06 12:34:53;;;;;;;10.98;5.68;;;22.50;67.10;;;;;;5069663;28;20250;-62
2021/09/06 12:37:22;;;;;;;9.00;6.10;;;22.60;64.40;;;;;;5069299;28;20702;-62
2021/09/06 12:39:48;;;;;;;10.98;5.40;;;22.60;63.80;;;;;;5068680;28;20496;-64
2021/09/06 12:42:13;;;;;;;8.32;5.15;;;22.60;63.80;;;;;;5069189;28;20041;-63
2021/09/06 12:44:39;;;;;;;8.63;5.55;;;22.50;64.80;;;;;;5068872;28;20071;-63
2021/09/06 12:47:05;;;;;;;11.50;5.97;;;22.30;65.10;;;;;;5068502;28;20051;-63
2021/09/06 12:49:31;;;;;;;8.20;5.50;;;22.20;63.70;;;;;;5068747;28;20072;-62
2021/09/06 12:51:59;;;;;;;8.32;5.05;;;22.00;66.10;;;;;;5069421;28;20431;-63
2021/09/06 12:54:28;;;;;;;9.25;5.90;;;22.00;67.20;;;;;;5068813;28;20045;-63
2021/09/06 12:56:54;;;;;;;8.90;5.90;;;22.00;71.10;;;;;;5066387;28;20124;-64
2021/09/06 12:59:21;;;;;;;13.15;6.20;;;21.90;65.80;;;;;;5064980;28;20124;-63